02:06
Airports
History
Links
Donate
Help keep this website running!
PayPal
Bitcoin
This page is community maintained. The information is intended for PC simulator navigation or reference.
Always use approved charts for navigation.
MN04
Aggies Landing
Aggies Landing (MN04)
Alexandria, Minnesota, United States (56308)
4
Lat/Lng:45° 46' 24.87" N / 95° 15' 46.12" W
45.773574 / -95.262811
Elevation:1387'ft / 423mMSL
ID / ICAO:MN04
Runways:1
Longest:17-35
Grass 515m / 1,690ft
Nearby Weather01:53 GMT 2017-12-11
Nearby weather at KAXN, Chandler Field located 9.0 nautical miles from MN04
Altimeter: 29.95
Visibility: 10.0 statute miles
Wind: 3 knots (from 160°)
Temp: -4°c / 25°f
Humidity: 79.5%

METAR: KAXN 110153Z AUTO 16003KT 10SM BKN080 M04/M07 A2995 RMK AO2 SLP165 T10441067

(Powered by phpweather)
Nearby VORs <50NM
Nearby NDBs
Runway 17 / 35
Dimensions:515 x 30.5m 1690' x 100'ft
Surface:Grass
Runway 17 [A]Runway 35 [B]
Heading:174°TH 354°TH
Lat:
Lng:
45° 46' 33.23"N
95° 15' 47.17"W
45° 46' 16.5"N
95° 15' 45.07"W
User Notes and Comments
45° 46' 24.87" N / 95° 15' 46.12" W
Distance To
Airport ID:
Nearby Airports
(U) Chandler Field 9.0 NM
KAXN ( WX ) NW 315°
(U) Glenwood Muni 9.4 NM
KGHW ( WX ) SSW 197°
(U) Sauk Centre Muni 16.6 NM
D39 ESE 106°
4 Starbuck Muni 17.7 NM
D32 SW 227°
(U) Brooten Muni/john O. Bohmer Fi 20.2 NM
6D1 SSE 159°
(U) Todd Field 20.6 NM
14Y ENE 65°
4 Elmer 26.1 NM
46MN NW 307°
VFR Chart
Flight Planning at SkyVector.com